createdAt,value
2018-09-10T00:00:37.500Z,98209.23
2018-09-10T00:03:06.731Z,98211.31
2018-09-10T00:05:35.937Z,98213.75
2018-09-10T00:08:05.604Z,98217.08
2018-09-10T00:10:34.828Z,98210.67
2018-09-10T00:13:04.151Z,98209.54
2018-09-10T00:15:33.416Z,98212.33
2018-09-10T00:18:02.694Z,98208.66
2018-09-10T00:20:31.955Z,98208.39
2018-09-10T00:23:01.280Z,98211.52
2018-09-10T00:25:30.743Z,98208.73
2018-09-10T00:28:00.107Z,98204.95
2018-09-10T00:30:29.231Z,98207.70
2018-09-10T00:32:58.368Z,98205.85
2018-09-10T00:35:27.774Z,98211.31
2018-09-10T00:37:57.030Z,98211.18
2018-09-10T00:40:26.313Z,98202.19
2018-09-10T00:42:55.630Z,98202.66
2018-09-10T00:45:24.843Z,98207.06
2018-09-10T00:47:53.887Z,98198.02
2018-09-10T00:50:23.219Z,98199.98
2018-09-10T00:52:52.647Z,98202.26
2018-09-10T00:55:21.978Z,98194.12
2018-09-10T00:57:51.215Z,98187.45
2018-09-10T01:00:20.512Z,98199.65
2018-09-10T01:02:49.519Z,98199.23
2018-09-10T01:05:18.806Z,98202.37
2018-09-10T01:07:48.111Z,98206.42
2018-09-10T01:10:17.368Z,98198.89
2018-09-10T01:12:46.819Z,98209.32
2018-09-10T01:15:16.003Z,98201.90
2018-09-10T01:17:45.075Z,98203.30
2018-09-10T01:20:14.141Z,98199.82
2018-09-10T01:22:43.238Z,98199.77
2018-09-10T01:25:12.522Z,98203.77
2018-09-10T01:27:41.734Z,98202.08
2018-09-10T01:30:11.148Z,98200.91
2018-09-10T01:32:40.483Z,98201.61
2018-09-10T01:35:09.838Z,98195.77
2018-09-10T01:37:38.806Z,98200.39
2018-09-10T01:40:07.832Z,98200.86
2018-09-10T01:42:37.067Z,98197.10
2018-09-10T01:45:06.272Z,98198.94
2018-09-10T01:47:35.461Z,98193.72
2018-09-10T01:50:04.588Z,98202.08
2018-09-10T01:52:33.863Z,98202.55
2018-09-10T01:55:03.040Z,98200.41
2018-09-10T01:57:32.215Z,98198.02
2018-09-10T02:00:01.257Z,98196.86
2018-09-10T02:02:30.435Z,98190.23
2018-09-10T02:04:59.571Z,98191.34
2018-09-10T02:07:28.881Z,98192.73
2018-09-10T02:09:58.379Z,98189.83
2018-09-10T02:12:27.781Z,98198.88
2018-09-10T02:14:57.260Z,98193.33
2018-09-10T02:17:26.708Z,98192.97
2018-09-10T02:19:55.986Z,98196.22
2018-09-10T02:22:25.183Z,98189.92
2018-09-10T02:24:54.648Z,98194.73
2018-09-10T02:27:23.829Z,98195.13
2018-09-10T02:29:53.133Z,98205.62
2018-09-10T02:32:22.449Z,98201.73
2018-09-10T02:34:51.785Z,98194.95
2018-09-10T02:37:20.982Z,98201.14
2018-09-10T02:39:50.083Z,98195.23
2018-09-10T02:42:19.469Z,98200.78
2018-09-10T02:44:48.662Z,98200.66
2018-09-10T02:47:18.027Z,98197.39
2018-09-10T02:49:47.329Z,98192.27
2018-09-10T02:52:16.416Z,98190.88
2018-09-10T02:54:45.831Z,98197.64
2018-09-10T02:57:15.068Z,98199.73
2018-09-10T02:59:44.183Z,98196.86
2018-09-10T03:02:13.616Z,98209.03
2018-09-10T03:04:44.915Z,98209.53
2018-09-10T03:07:15.339Z,98212.66
2018-09-10T03:09:44.792Z,98219.44
2018-09-10T03:12:14.240Z,98222.78
2018-09-10T03:14:43.383Z,98220.48
2018-09-10T03:17:12.468Z,98224.12
2018-09-10T03:19:41.888Z,98229.84
2018-09-10T03:22:11.027Z,98235.24
2018-09-10T03:24:40.412Z,98238.59
2018-09-10T03:27:09.552Z,98244.89
2018-09-10T03:29:38.728Z,98244.89
2018-09-10T03:32:08.380Z,98256.69
2018-09-10T03:34:37.828Z,98251.17
2018-09-10T03:37:07.128Z,98253.29
2018-09-10T03:39:36.476Z,98254.16
2018-09-10T03:42:05.680Z,98258.83
2018-09-10T03:44:34.981Z,98261.38
2018-09-10T03:47:04.308Z,98261.13
2018-09-10T03:49:33.506Z,98262.56
2018-09-10T03:52:02.535Z,98267.49
2018-09-10T03:54:31.464Z,98266.62
2018-09-10T03:57:00.470Z,98268.92
2018-09-10T03:59:29.965Z,98277.68
2018-09-10T04:01:59.166Z,98281.67
2018-09-10T04:04:28.720Z,98279.59
2018-09-10T04:06:58.048Z,98286.25
2018-09-10T04:09:27.395Z,98292.25
2018-09-10T04:11:56.900Z,98288.56
2018-09-10T04:14:25.979Z,98297.12
2018-09-10T04:16:55.020Z,98296.56
2018-09-10T04:19:24.385Z,98296.36
2018-09-10T04:21:53.691Z,98297.59
2018-09-10T04:24:23.244Z,98296.72
2018-09-10T04:26:52.701Z,98298.14
2018-09-10T04:29:21.902Z,98296.33
2018-09-10T04:31:51.067Z,98299.25
2018-09-10T04:34:20.265Z,98293.45
2018-09-10T04:36:49.241Z,98300.56
2018-09-10T04:39:18.543Z,98295.64
2018-09-10T04:41:47.847Z,98306.74
2018-09-10T04:44:17.090Z,98300.45
2018-09-10T04:46:46.440Z,98303.20
2018-09-10T04:49:15.844Z,98310.05
2018-09-10T04:51:45.184Z,98304.62
2018-09-10T04:54:14.567Z,98301.38
2018-09-10T04:56:43.617Z,98301.53
2018-09-10T04:59:12.928Z,98304.20
2018-09-10T05:01:42.118Z,98306.19
2018-09-10T05:04:11.206Z,98299.92
2018-09-10T05:06:40.436Z,98308.05
2018-09-10T05:09:10.091Z,98303.86
2018-09-10T05:11:39.520Z,98314.50
2018-09-10T05:14:09.128Z,98312.05
2018-09-10T05:31:01.049Z,98316.58
2018-09-10T05:33:30.445Z,98312.39
2018-09-10T05:35:59.751Z,98311.61
2018-09-10T05:38:29.204Z,98321.58
2018-09-10T05:40:58.467Z,98319.65
2018-09-10T05:43:27.748Z,98319.71
2018-09-10T05:45:56.896Z,98317.80
2018-09-10T05:48:26.126Z,98320.30
2018-09-10T05:50:55.489Z,98318.84
2018-09-10T05:53:24.708Z,98314.02
2018-09-10T05:55:53.941Z,98317.33
2018-09-10T05:58:23.071Z,98313.96
2018-09-10T06:00:52.485Z,98316.63
2018-09-10T06:03:21.615Z,98313.73
2018-09-10T06:05:50.982Z,98310.70
2018-09-10T06:08:20.323Z,98316.72
2018-09-10T06:10:49.776Z,98311.95
2018-09-10T06:13:18.924Z,98324.67
2018-09-10T06:15:48.348Z,98320.02
2018-09-10T06:18:17.317Z,98325.06
2018-09-10T06:20:46.784Z,98324.72
2018-09-10T06:23:16.184Z,98320.19
2018-09-10T06:25:45.592Z,98322.64
2018-09-10T06:28:14.828Z,98319.55
2018-09-10T06:30:44.127Z,98317.75
2018-09-10T06:33:13.247Z,98327.62
2018-09-10T06:35:42.467Z,98324.08
2018-09-10T06:38:11.681Z,98322.52
2018-09-10T06:40:41.117Z,98323.67
2018-09-10T06:43:10.347Z,98330.25
2018-09-10T06:45:39.509Z,98326.38
2018-09-10T06:48:08.715Z,98330.84
2018-09-10T06:50:37.968Z,98332.63
2018-09-10T06:53:07.199Z,98331.81
2018-09-10T06:55:36.459Z,98335.00
2018-09-10T06:58:06.061Z,98328.47
2018-09-10T07:00:35.339Z,98325.55
2018-09-10T07:03:04.751Z,98326.72
2018-09-10T07:05:33.945Z,98330.62
2018-09-10T07:08:03.449Z,98329.79
2018-09-10T07:10:32.843Z,98333.53
2018-09-10T07:13:02.233Z,98329.44
2018-09-10T07:15:31.843Z,98327.64
2018-09-10T07:18:01.215Z,98336.61
2018-09-10T07:20:30.171Z,98329.33
2018-09-10T07:22:59.453Z,98333.51
2018-09-10T07:25:28.803Z,98332.84
2018-09-10T07:27:58.006Z,98333.20
2018-09-10T07:30:27.340Z,98334.41
2018-09-10T07:32:56.664Z,98334.92
2018-09-10T07:35:25.937Z,98342.71
2018-09-10T07:37:55.207Z,98332.43
2018-09-10T07:40:24.383Z,98334.68
2018-09-10T07:42:53.211Z,98333.20
2018-09-10T07:45:22.276Z,98335.98
2018-09-10T07:47:51.640Z,98333.13
2018-09-10T07:50:20.994Z,98341.59
2018-09-10T07:52:50.462Z,98336.32
2018-09-10T07:55:19.700Z,98332.17
2018-09-10T07:57:49.199Z,98333.27
2018-09-10T08:00:18.518Z,98328.98
2018-09-10T08:02:47.950Z,98331.31
2018-09-10T08:05:17.316Z,98322.41
2018-09-10T08:07:46.384Z,98319.48
2018-09-10T08:10:15.693Z,98322.55
2018-09-10T08:12:44.876Z,98313.08
2018-09-10T08:15:14.135Z,98308.20
2018-09-10T08:17:43.438Z,98315.14
2018-09-10T08:20:12.915Z,98311.24
2018-09-10T08:22:42.280Z,98315.99
2018-09-10T08:25:11.701Z,98313.92
2018-09-10T08:27:40.747Z,98313.78
2018-09-10T08:30:10.156Z,98307.16
2018-09-10T08:32:39.243Z,98307.90
2018-09-10T08:35:08.632Z,98300.80
2018-09-10T08:37:37.976Z,98298.03
2018-09-10T08:40:07.139Z,98294.56
2018-09-10T08:42:36.364Z,98292.92
2018-09-10T08:45:05.965Z,98291.05
2018-09-10T08:47:35.526Z,98293.25
2018-09-10T08:50:04.885Z,98296.67
2018-09-10T08:52:33.888Z,98297.42
2018-09-10T08:55:03.355Z,98298.48
2018-09-10T08:57:32.447Z,98296.00
2018-09-10T09:00:01.641Z,98289.13
2018-09-10T09:02:31.125Z,98287.58
2018-09-10T09:05:00.661Z,98282.53
2018-09-10T09:07:30.120Z,98288.77
2018-09-10T09:09:59.516Z,98285.44
2018-09-10T09:12:28.511Z,98285.72
2018-09-10T09:14:57.940Z,98290.19
2018-09-10T09:17:27.179Z,98294.73
2018-09-10T09:19:56.616Z,98285.51
2018-09-10T09:22:26.072Z,98279.63
2018-09-10T09:24:55.417Z,98274.88
2018-09-10T09:27:24.648Z,98275.62
2018-09-10T09:29:53.863Z,98277.27
2018-09-10T09:32:22.853Z,98280.84
2018-09-10T09:34:56.707Z,98284.35
2018-09-10T09:37:31.243Z,98287.11
2018-09-10T09:40:05.684Z,98293.77
2018-09-10T09:42:39.804Z,98280.92
2018-09-10T09:45:13.996Z,98279.59
2018-09-10T09:47:43.311Z,98288.05
2018-09-10T09:50:12.640Z,98298.66
2018-09-10T09:52:41.996Z,98292.02
2018-09-10T09:55:10.985Z,98285.91
2018-09-10T09:57:40.171Z,98283.23
2018-09-10T10:00:14.211Z,98282.19
2018-09-10T10:02:48.307Z,98282.38
2018-09-10T10:05:17.516Z,98280.25
2018-09-10T10:07:46.440Z,98289.70
2018-09-10T10:10:15.791Z,98281.69
2018-09-10T10:12:45.098Z,98298.44
2018-09-10T10:15:14.516Z,98275.39
2018-09-10T10:17:43.933Z,98286.37
2018-09-10T10:20:13.316Z,98283.85
2018-09-10T10:22:42.499Z,98287.83
2018-09-10T10:25:11.815Z,98283.03
2018-09-10T10:27:41.186Z,98285.78
2018-09-10T10:30:10.479Z,98276.89
2018-09-10T10:32:39.712Z,98272.51
2018-09-10T10:35:08.921Z,98273.19
2018-09-10T10:37:38.003Z,98281.02
2018-09-10T10:40:07.303Z,98282.25
2018-09-10T10:42:36.615Z,98278.96
2018-09-10T10:45:05.904Z,98279.17
2018-09-10T10:47:35.007Z,98284.73
2018-09-10T10:50:04.379Z,98282.98
2018-09-10T10:52:33.758Z,98274.55
2018-09-10T10:55:03.029Z,98265.73
2018-09-10T10:57:32.256Z,98274.43
2018-09-10T11:00:01.215Z,98267.07
2018-09-10T11:02:30.384Z,98269.05
2018-09-10T11:04:59.544Z,98272.61
2018-09-10T11:07:28.691Z,98268.87
2018-09-10T11:09:58.040Z,98263.72
2018-09-10T11:12:27.367Z,98264.09
2018-09-10T11:14:56.580Z,98271.22
2018-09-10T11:17:25.631Z,98252.38
2018-09-10T11:19:54.905Z,98246.63
2018-09-10T11:22:24.100Z,98254.13
2018-09-10T11:24:53.527Z,98244.91
2018-09-10T11:27:22.868Z,98243.54
2018-09-10T11:29:51.998Z,98239.55
2018-09-10T11:32:21.334Z,98249.23
2018-09-10T11:34:50.303Z,98235.88
2018-09-10T11:37:19.803Z,98249.86
2018-09-10T11:39:49.104Z,98241.70
2018-09-10T11:42:18.291Z,98241.59
2018-09-10T11:44:47.634Z,98244.35
2018-09-10T11:47:16.758Z,98239.30
2018-09-10T11:49:46.139Z,98239.55
2018-09-10T11:52:15.539Z,98235.86
2018-09-10T11:54:44.692Z,98235.83
2018-09-10T11:57:13.833Z,98233.42
2018-09-10T11:59:42.827Z,98225.17
2018-09-10T12:02:12.219Z,98223.95
2018-09-10T12:04:41.384Z,98224.45
2018-09-10T12:07:10.881Z,98215.86
2018-09-10T12:09:40.235Z,98219.25
2018-09-10T12:12:09.567Z,98214.28
2018-09-10T12:14:38.835Z,98218.19
2018-09-10T12:17:08.139Z,98212.14
2018-09-10T12:19:37.179Z,98207.08
2018-09-10T12:22:06.383Z,98209.73
2018-09-10T12:24:35.500Z,98206.56
2018-09-10T12:27:04.692Z,98210.20
2018-09-10T12:29:34.160Z,98210.70
2018-09-10T12:32:03.525Z,98214.24
2018-09-10T12:34:32.796Z,98201.30
2018-09-10T12:37:02.104Z,98203.69
2018-09-10T12:39:31.222Z,98208.50
2018-09-10T12:42:00.538Z,98202.75
2018-09-10T12:44:29.941Z,98207.84
2018-09-10T12:46:59.212Z,98207.95
2018-09-10T12:49:28.628Z,98199.43
2018-09-10T12:51:57.857Z,98193.23
2018-09-10T12:54:27.239Z,98184.11
2018-09-10T12:56:56.460Z,98185.39
2018-09-10T12:59:25.902Z,98175.84
2018-09-10T13:01:55.032Z,98171.20
2018-09-10T13:04:24.188Z,98178.16
2018-09-10T13:06:53.395Z,98174.28
2018-09-10T13:09:22.607Z,98178.87
2018-09-10T13:11:52.047Z,98175.12
2018-09-10T13:14:21.356Z,98176.48
2018-09-10T13:16:50.280Z,98167.18
2018-09-10T13:19:19.201Z,98174.80
2018-09-10T13:21:48.133Z,98169.17
2018-09-10T13:24:17.455Z,98172.36
2018-09-10T13:26:46.804Z,98176.81
2018-09-10T13:29:15.993Z,98181.63
2018-09-10T13:31:45.360Z,98178.44
2018-09-10T13:34:14.599Z,98174.98
2018-09-10T13:36:44.019Z,98176.34
2018-09-10T13:39:13.564Z,98176.27
2018-09-10T13:41:42.736Z,98164.02
2018-09-10T13:44:12.100Z,98159.86
2018-09-10T13:46:41.278Z,98163.22
2018-09-10T13:49:10.392Z,98165.85
2018-09-10T13:51:39.756Z,98157.88
2018-09-10T13:54:09.015Z,98165.09
2018-09-10T13:56:38.296Z,98160.31
2018-09-10T13:59:07.742Z,98164.48
2018-09-10T14:01:36.853Z,98166.00
2018-09-10T14:04:06.136Z,98169.22
2018-09-10T14:06:35.506Z,98162.88
2018-09-10T14:09:06.048Z,98161.63
2018-09-10T14:11:35.591Z,98165.04
2018-09-10T14:14:04.671Z,98160.98
2018-09-10T14:16:33.741Z,98164.87
2018-09-10T14:21:41.829Z,98157.87
2018-09-10T14:24:10.936Z,98156.63
2018-09-10T14:26:40.227Z,98159.31
2018-09-10T14:29:09.683Z,98157.13
2018-09-10T14:31:39.139Z,98157.98
2018-09-10T14:34:08.510Z,98163.02
2018-09-10T14:36:37.787Z,98164.83
2018-09-10T14:39:08.576Z,98171.20
2018-09-10T14:41:37.814Z,98167.42
2018-09-10T14:44:07.065Z,98162.95
2018-09-10T14:46:36.028Z,98156.82
2018-09-10T14:49:05.460Z,98164.41
2018-09-10T14:51:34.861Z,98161.53
2018-09-10T14:54:04.072Z,98162.89
2018-09-10T14:56:33.460Z,98163.58
2018-09-10T14:59:02.479Z,98161.34
2018-09-10T15:01:31.525Z,98159.00
2018-09-10T15:04:00.869Z,98162.52
2018-09-10T15:06:30.112Z,98160.94
2018-09-10T15:08:59.301Z,98168.77
2018-09-10T15:11:28.594Z,98164.26
2018-09-10T15:13:58.111Z,98166.17
2018-09-10T15:16:27.591Z,98172.16
2018-09-10T15:18:57.066Z,98169.03
2018-09-10T15:21:26.443Z,98171.09
2018-09-10T15:23:55.409Z,98175.02
2018-09-10T15:26:24.844Z,98170.33
2018-09-10T15:28:54.085Z,98169.81
2018-09-10T15:31:23.231Z,98168.69
2018-09-10T15:33:52.615Z,98174.73
2018-09-10T15:36:22.085Z,98177.73
2018-09-10T15:38:51.423Z,98172.75
2018-09-10T15:41:20.896Z,98176.30
2018-09-10T15:43:49.864Z,98176.64
2018-09-10T15:46:18.980Z,98179.81
2018-09-10T15:48:48.025Z,98178.91
2018-09-10T15:51:17.423Z,98179.25
2018-09-10T15:53:46.412Z,98179.33
2018-09-10T15:56:15.638Z,98176.52
2018-09-10T15:58:44.853Z,98177.57
2018-09-10T16:01:14.189Z,98174.20
2018-09-10T16:03:43.746Z,98173.55
2018-09-10T16:06:13.033Z,98169.02
2018-09-10T16:08:42.212Z,98171.50
2018-09-10T16:11:11.580Z,98172.30
2018-09-10T16:13:40.707Z,98173.63
2018-09-10T16:16:10.028Z,98174.68
2018-09-10T16:18:39.409Z,98187.48
2018-09-10T16:21:08.324Z,98182.86
2018-09-10T16:23:37.267Z,98181.18
2018-09-10T16:26:06.627Z,98177.45
2018-09-10T16:28:35.727Z,98178.81
2018-09-10T16:31:04.935Z,98177.27
2018-09-10T16:33:34.375Z,98181.06
2018-09-10T16:36:03.822Z,98183.80
2018-09-10T16:38:33.034Z,98187.89
2018-09-10T16:41:02.159Z,98186.11
2018-09-10T16:43:31.564Z,98189.63
2018-09-10T16:46:00.523Z,98192.53
2018-09-10T16:48:29.775Z,98194.76
2018-09-10T16:50:59.070Z,98192.83
2018-09-10T16:53:28.393Z,98189.60
2018-09-10T16:55:57.711Z,98197.64
2018-09-10T16:58:27.213Z,98200.54
2018-09-10T17:00:56.411Z,98209.44
2018-09-10T17:03:25.483Z,98215.88
2018-09-10T17:05:54.579Z,98207.88
2018-09-10T17:08:23.628Z,98211.77
2018-09-10T17:10:52.491Z,98216.53
2018-09-10T17:13:21.651Z,98218.36
2018-09-10T17:15:51.027Z,98220.25
2018-09-10T17:18:20.263Z,98224.63
2018-09-10T17:20:49.518Z,98228.10
2018-09-10T17:23:18.971Z,98226.39
2018-09-10T17:25:52.085Z,98238.23
2018-09-10T17:28:21.872Z,98239.67
2018-09-10T17:30:51.679Z,98242.13
2018-09-10T17:33:20.988Z,98249.39
2018-09-10T17:35:50.354Z,98247.66
2018-09-10T17:38:19.315Z,98254.86
2018-09-10T17:40:48.677Z,98252.10
2018-09-10T17:43:18.032Z,98262.56
2018-09-10T17:45:47.367Z,98258.66
2018-09-10T17:48:16.679Z,98264.39
2018-09-10T17:50:45.931Z,98265.94
2018-09-10T17:53:15.267Z,98274.96
2018-09-10T17:55:44.504Z,98269.25
2018-09-10T17:58:13.431Z,98282.38
2018-09-10T18:00:46.105Z,98280.91
2018-09-10T18:03:15.518Z,98287.83
2018-09-10T18:05:45.215Z,98291.41
2018-09-10T18:08:14.811Z,98292.67
2018-09-10T18:10:44.289Z,98295.86
2018-09-10T18:13:13.655Z,98295.16
2018-09-10T18:15:42.949Z,98297.95
2018-09-10T18:18:12.277Z,98299.05
2018-09-10T18:20:41.620Z,98305.24
2018-09-10T18:23:10.986Z,98300.41
2018-09-10T18:25:39.984Z,98315.85
2018-09-10T18:28:09.194Z,98311.12
2018-09-10T18:30:39.767Z,98311.38
2018-09-10T18:33:10.295Z,98314.90
2018-09-10T18:35:39.608Z,98315.25
2018-09-10T18:38:08.804Z,98317.23
2018-09-10T18:40:38.089Z,98319.39
2018-09-10T18:43:07.184Z,98317.69
2018-09-10T18:45:36.427Z,98313.55
2018-09-10T18:48:05.408Z,98320.53
2018-09-10T18:50:34.628Z,98326.84
2018-09-10T18:53:03.964Z,98328.31
2018-09-10T18:55:33.207Z,98329.46
2018-09-10T18:58:02.491Z,98325.34
2018-09-10T19:00:31.775Z,98333.76
2018-09-10T19:03:00.920Z,98330.09
2018-09-10T19:05:30.280Z,98332.90
2018-09-10T19:07:59.347Z,98333.05
2018-09-10T19:10:28.303Z,98330.72
2018-09-10T19:12:57.547Z,98336.93
2018-09-10T19:15:26.716Z,98336.33
2018-09-10T19:17:56.029Z,98334.73
2018-09-10T19:20:25.463Z,98334.98
2018-09-10T19:22:54.885Z,98332.66
2018-09-10T19:25:24.188Z,98343.88
2018-09-10T19:27:53.413Z,98342.78
2018-09-10T19:30:22.704Z,98337.03
2018-09-10T19:32:52.056Z,98346.78
2018-09-10T19:35:21.322Z,98345.42
2018-09-10T19:37:50.619Z,98347.61
2018-09-10T19:40:19.667Z,98346.69
2018-09-10T19:42:49.093Z,98343.64
2018-09-10T19:45:18.491Z,98347.17
2018-09-10T19:47:47.876Z,98352.78
2018-09-10T19:50:17.392Z,98351.80
2018-09-10T19:52:46.832Z,98350.58
2018-09-10T19:55:16.185Z,98349.71
2018-09-10T19:57:45.499Z,98352.66
2018-09-10T20:00:14.833Z,98354.47
2018-09-10T20:02:44.060Z,98350.45
2018-09-10T20:05:13.044Z,98343.86
2018-09-10T20:07:42.043Z,98351.95
2018-09-10T20:10:11.077Z,98353.30
2018-09-10T20:12:40.305Z,98353.89
2018-09-10T20:15:09.404Z,98350.83
2018-09-10T20:17:38.683Z,98359.22
2018-09-10T20:20:08.392Z,98365.04
2018-09-10T20:22:37.768Z,98368.43
2018-09-10T20:25:07.316Z,98373.66
2018-09-10T20:27:36.693Z,98369.68
2018-09-10T20:30:06.400Z,98377.17
2018-09-10T20:32:35.794Z,98373.55
2018-09-10T20:35:05.078Z,98377.91
2018-09-10T20:37:34.228Z,98379.76
2018-09-10T20:40:03.587Z,98375.75
2018-09-10T20:42:32.988Z,98380.73
2018-09-10T20:45:02.299Z,98384.60
2018-09-10T20:47:31.384Z,98384.48
2018-09-10T20:50:00.372Z,98380.67
2018-09-10T20:52:29.760Z,98376.42
2018-09-10T20:54:59.015Z,98377.28
2018-09-10T20:57:28.361Z,98381.89
2018-09-10T20:59:57.826Z,98385.43
2018-09-10T21:02:26.905Z,98393.45
2018-09-10T21:04:56.021Z,98394.44
2018-09-10T21:07:25.110Z,98393.10
2018-09-10T21:09:54.387Z,98395.54
2018-09-10T21:12:23.486Z,98392.86
2018-09-10T21:14:52.849Z,98389.45
2018-09-10T21:17:22.191Z,98393.84
2018-09-10T21:19:51.438Z,98391.68
2018-09-10T21:22:20.738Z,98390.08
2018-09-10T21:24:50.259Z,98390.19
2018-09-10T21:27:19.228Z,98389.59
2018-09-10T21:29:48.377Z,98390.34
2018-09-10T21:32:17.767Z,98389.20
2018-09-10T21:34:46.778Z,98389.20
2018-09-10T21:37:16.227Z,98397.03
2018-09-10T21:39:45.588Z,98393.10
2018-09-10T21:42:14.823Z,98398.30
2018-09-10T21:44:44.009Z,98395.34
2018-09-10T21:47:13.520Z,98395.23
2018-09-10T21:49:42.981Z,98388.19
2018-09-10T21:52:12.315Z,98390.81
2018-09-10T21:54:41.469Z,98384.25
2018-09-10T21:57:10.760Z,98389.95
2018-09-10T21:59:40.024Z,98385.94
2018-09-10T22:02:09.275Z,98383.61
2018-09-10T22:04:38.570Z,98377.05
2018-09-10T22:07:07.791Z,98383.84
2018-09-10T22:09:37.253Z,98385.30
2018-09-10T22:12:06.367Z,98380.78
2018-09-10T22:14:35.864Z,98382.70
2018-09-10T22:17:05.076Z,98382.08
2018-09-10T22:19:34.364Z,98383.53
2018-09-10T22:22:03.662Z,98390.91
2018-09-10T22:24:32.997Z,98388.11
2018-09-10T22:27:02.260Z,98385.20
2018-09-10T22:29:31.684Z,98387.13
2018-09-10T22:32:01.056Z,98385.44
2018-09-10T22:34:30.411Z,98385.16
2018-09-10T22:36:59.632Z,98382.08
2018-09-10T22:39:28.893Z,98384.98
2018-09-10T22:41:58.167Z,98384.59
2018-09-10T22:44:28.516Z,98386.67
2018-09-10T22:46:58.343Z,98387.65
2018-09-10T22:49:27.632Z,98388.98
2018-09-10T22:51:56.885Z,98391.59
2018-09-10T22:54:26.250Z,98383.30
2018-09-10T22:56:55.230Z,98382.66
2018-09-10T22:59:24.347Z,98389.73
2018-09-10T23:01:53.626Z,98392.47
2018-09-10T23:04:22.876Z,98386.60
2018-09-10T23:06:51.836Z,98385.73
2018-09-10T23:09:20.992Z,98379.87
2018-09-10T23:11:50.108Z,98380.45
2018-09-10T23:14:19.243Z,98380.20
2018-09-10T23:16:48.247Z,98374.27
2018-09-10T23:19:17.487Z,98379.17
2018-09-10T23:21:46.984Z,98377.17
2018-09-10T23:24:15.882Z,98373.91
2018-09-10T23:26:45.377Z,98371.60
2018-09-10T23:29:14.206Z,98370.32
2018-09-10T23:31:43.565Z,98366.88
2018-09-10T23:34:12.836Z,98367.73
2018-09-10T23:36:41.841Z,98363.98
2018-09-10T23:39:10.928Z,98369.66
2018-09-10T23:41:40.239Z,98366.48
2018-09-10T23:44:09.759Z,98361.83
2018-09-10T23:46:39.013Z,98366.53
2018-09-10T23:49:08.095Z,98364.14
2018-09-10T23:51:37.114Z,98358.74
2018-09-10T23:54:06.308Z,98366.00
2018-09-10T23:56:35.626Z,98364.95
2018-09-10T23:59:04.989Z,98356.13
